TimeCDT,TemperatureF,Dew PointF,Humidity,Sea Level PressureIn,VisibilityMPH,Wind Direction,Wind SpeedMPH,Gust SpeedMPH,PrecipitationIn,Events,Conditions,WindDirDegrees,DateUTC
12:52 AM,63.0,46.9,56,30.06,10.0,SE,15.0,20.7,N/A,,Overcast,140,2013-05-25 05:52:00
1:52 AM,62.1,46.9,58,30.04,10.0,SE,15.0,-,N/A,,Overcast,130,2013-05-25 06:52:00
2:52 AM,62.1,46.0,56,30.03,10.0,SE,12.7,-,N/A,Thunderstorm,Thunderstorm,140,2013-05-25 07:52:00
3:39 AM,60.8,46.4,59,30.04,10.0,SE,12.7,-,N/A,,Overcast,140,2013-05-25 08:39:00
3:52 AM,61.0,48.0,62,30.03,10.0,SE,10.4,-,N/A,,Overcast,140,2013-05-25 08:52:00
4:52 AM,55.9,51.1,84,30.02,10.0,ESE,10.4,-,N/A,,Partly Cloudy,110,2013-05-25 09:52:00
5:52 AM,57.0,52.0,83,30.01,10.0,SE,5.8,17.3,0.00,Rain,Light Rain,130,2013-05-25 10:52:00
6:52 AM,57.0,54.0,89,29.99,10.0,ENE,10.4,-,0.01,,Mostly Cloudy,60,2013-05-25 11:52:00
7:08 AM,57.2,53.6,88,30.03,10.0,ENE,9.2,-,N/A,,Mostly Cloudy,70,2013-05-25 12:08:00
7:18 AM,57.2,53.6,88,30.05,10.0,NNW,6.9,-,N/A,,Overcast,330,2013-05-25 12:18:00
7:52 AM,57.9,55.0,90,30.05,10.0,ENE,6.9,-,N/A,,Overcast,70,2013-05-25 12:52:00
8:52 AM,60.1,55.9,86,30.06,10.0,Calm,Calm,-,N/A,,Overcast,0,2013-05-25 13:52:00
9:36 AM,62.6,55.4,77,30.05,10.0,ESE,3.5,-,N/A,,Scattered Clouds,110,2013-05-25 14:36:00
9:45 AM,62.6,55.4,77,30.04,10.0,ESE,6.9,-,N/A,,Mostly Cloudy,120,2013-05-25 14:45:00
9:52 AM,62.1,55.9,80,30.04,10.0,SE,6.9,-,N/A,,Mostly Cloudy,140,2013-05-25 14:52:00
10:52 AM,63.0,57.0,81,30.04,10.0,ESE,13.8,-,N/A,,Overcast,120,2013-05-25 15:52:00
11:52 AM,63.0,57.0,81,30.04,10.0,East,13.8,-,N/A,,Overcast,90,2013-05-25 16:52:00
12:52 PM,63.0,57.0,81,30.06,10.0,ESE,17.3,20.7,N/A,,Overcast,110,2013-05-25 17:52:00
1:52 PM,64.0,57.9,80,30.04,10.0,ESE,13.8,-,N/A,,Overcast,110,2013-05-25 18:52:00
2:52 PM,66.0,59.0,78,30.04,10.0,ESE,13.8,-,N/A,,Overcast,110,2013-05-25 19:52:00
3:01 PM,66.2,59.0,78,30.04,10.0,ESE,15.0,-,N/A,,Mostly Cloudy,110,2013-05-25 20:01:00
3:52 PM,70.0,60.1,71,30.02,10.0,ESE,15.0,21.9,N/A,,Mostly Cloudy,110,2013-05-25 20:52:00
4:04 PM,69.8,60.8,73,30.03,10.0,ESE,15.0,-,N/A,,Scattered Clouds,110,2013-05-25 21:04:00
4:52 PM,72.0,61.0,68,30.02,10.0,SE,15.0,21.9,N/A,,Scattered Clouds,130,2013-05-25 21:52:00
5:52 PM,71.1,61.0,70,30.01,10.0,ESE,17.3,-,N/A,,Scattered Clouds,110,2013-05-25 22:52:00
6:00 PM,69.8,60.8,73,30.01,10.0,East,13.8,23.0,N/A,,Mostly Cloudy,100,2013-05-25 23:00:00
6:10 PM,69.8,60.8,73,30.00,10.0,East,13.8,21.9,N/A,,Scattered Clouds,100,2013-05-25 23:10:00
6:33 PM,69.8,60.8,73,30.00,10.0,ESE,16.1,-,N/A,,Mostly Cloudy,110,2013-05-25 23:33:00
6:52 PM,68.0,59.0,73,29.99,10.0,East,16.1,-,N/A,,Overcast,100,2013-05-25 23:52:00
7:52 PM,64.9,57.9,78,29.98,10.0,East,21.9,29.9,N/A,,Overcast,100,2013-05-26 00:52:00
8:15 PM,64.4,57.2,77,29.99,10.0,ESE,17.3,27.6,N/A,,Overcast,110,2013-05-26 01:15:00
8:52 PM,62.1,57.0,84,29.99,10.0,East,18.4,27.6,N/A,,Overcast,100,2013-05-26 01:52:00
9:35 PM,60.8,55.4,82,30.03,10.0,East,18.4,24.2,N/A,,Overcast,100,2013-05-26 02:35:00
9:52 PM,59.0,55.9,90,30.04,10.0,ESE,16.1,26.5,N/A,,Overcast,110,2013-05-26 02:52:00
10:52 PM,57.9,55.0,90,30.04,10.0,ESE,20.7,25.3,N/A,,Overcast,110,2013-05-26 03:52:00
11:17 PM,57.2,55.4,94,30.02,5.0,ESE,19.6,27.6,0.01,Rain-Thunderstorm,Rain,120,2013-05-26 04:17:00
11:27 PM,57.2,55.4,94,30.01,6.0,ESE,16.1,26.5,0.08,Rain-Thunderstorm,Light Rain,120,2013-05-26 04:27:00
11:52 PM,55.9,55.0,97,30.01,6.0,ESE,16.1,-,0.08,,Overcast,110,2013-05-26 04:52:00